createdAt,value
2018-05-02T00:00:16.180Z,98175.52
2018-05-02T00:02:42.670Z,98168.88
2018-05-02T00:05:09.077Z,98173.86
2018-05-02T00:07:35.531Z,98175.89
2018-05-02T00:10:01.973Z,98170.70
2018-05-02T00:12:28.484Z,98172.34
2018-05-02T00:14:54.948Z,98173.05
2018-05-02T00:17:21.356Z,98170.80
2018-05-02T00:19:47.788Z,98172.78
2018-05-02T00:22:14.191Z,98180.32
2018-05-02T00:24:40.648Z,98169.17
2018-05-02T00:27:07.052Z,98164.91
2018-05-02T00:29:33.509Z,98174.19
2018-05-02T00:31:59.914Z,98169.75
2018-05-02T00:34:26.323Z,98163.59
2018-05-02T00:36:53.514Z,98162.91
2018-05-02T00:39:19.904Z,98155.73
2018-05-02T00:41:47.394Z,98159.84
2018-05-02T00:44:13.801Z,98156.91
2018-05-02T00:46:40.975Z,98148.85
2018-05-02T00:49:16.668Z,98147.65
2018-05-02T00:51:43.750Z,98148.10
2018-05-02T00:54:11.015Z,98146.09
2018-05-02T00:56:37.983Z,98149.55
2018-05-02T00:59:04.515Z,98144.90
2018-05-02T01:01:30.969Z,98150.96
2018-05-02T01:03:57.776Z,98150.34
2018-05-02T01:06:24.191Z,98156.01
2018-05-02T01:08:51.346Z,98148.23
2018-05-02T01:11:25.845Z,98158.36
2018-05-02T01:13:53.125Z,98149.31
2018-05-02T01:16:19.531Z,98140.97
2018-05-02T01:18:45.982Z,98146.33
2018-05-02T01:21:13.191Z,98141.97
2018-05-02T01:23:39.663Z,98139.45
2018-05-02T01:26:06.830Z,98135.55
2018-05-02T01:28:33.976Z,98124.72
2018-05-02T01:31:00.399Z,98118.97
2018-05-02T01:33:27.644Z,98122.99
2018-05-02T01:35:55.003Z,98123.05
2018-05-02T01:38:22.482Z,98123.30
2018-05-02T01:40:49.229Z,98123.92
2018-05-02T01:43:15.642Z,98125.23
2018-05-02T01:45:43.125Z,98122.86
2018-05-02T01:48:09.561Z,98123.05
2018-05-02T01:50:36.007Z,98125.17
2018-05-02T01:53:02.418Z,98118.70
2018-05-02T01:55:28.943Z,98118.84
2018-05-02T01:57:55.472Z,98118.77
2018-05-02T02:00:22.752Z,98111.74
2018-05-02T02:02:49.168Z,98104.78
2018-05-02T02:05:15.904Z,98114.78
2018-05-02T02:07:42.317Z,98115.08
2018-05-02T02:10:09.493Z,98125.61
2018-05-02T02:12:35.896Z,98123.36
2018-05-02T02:15:03.184Z,98124.06
2018-05-02T02:17:29.624Z,98126.99
2018-05-02T02:19:56.009Z,98124.17
2018-05-02T02:22:22.540Z,98122.83
2018-05-02T02:24:48.944Z,98117.34
2018-05-02T02:27:15.360Z,98119.33
2018-05-02T02:29:41.808Z,98116.22
2018-05-02T02:32:08.225Z,98114.81
2018-05-02T02:34:34.644Z,98114.05
2018-05-02T02:37:01.184Z,98111.52
2018-05-02T02:39:27.613Z,98106.51
2018-05-02T02:41:54.249Z,98101.95
2018-05-02T02:44:20.696Z,98096.13
2018-05-02T02:46:47.108Z,98089.27
2018-05-02T02:49:13.492Z,98090.89
2018-05-02T02:51:39.909Z,98090.14
2018-05-02T02:54:06.391Z,98084.10
2018-05-02T02:56:33.577Z,98080.91
2018-05-02T02:59:00.037Z,98089.34
2018-05-02T03:01:26.499Z,98083.74
2018-05-02T03:03:54.757Z,98088.35
2018-05-02T03:06:21.195Z,98090.07
2018-05-02T03:08:47.611Z,98088.83
2018-05-02T03:11:14.826Z,98085.50
2018-05-02T03:13:41.304Z,98085.67
2018-05-02T03:16:07.832Z,98083.98
2018-05-02T03:18:34.245Z,98082.09
2018-05-02T03:21:00.635Z,98078.82
2018-05-02T03:23:27.790Z,98080.42
2018-05-02T03:25:54.977Z,98082.22
2018-05-02T03:28:21.383Z,98080.45
2018-05-02T03:30:48.069Z,98086.88
2018-05-02T03:33:14.476Z,98088.66
2018-05-02T03:35:40.874Z,98089.48
2018-05-02T03:38:07.330Z,98094.67
2018-05-02T03:40:33.767Z,98097.13
2018-05-02T03:43:00.165Z,98080.39
2018-05-02T03:45:27.319Z,98085.83
2018-05-02T03:47:54.566Z,98087.86
2018-05-02T03:50:21.754Z,98084.01
2018-05-02T03:52:48.184Z,98075.02
2018-05-02T03:55:14.576Z,98063.00
2018-05-02T03:57:41.001Z,98065.98
2018-05-02T04:00:26.038Z,98059.72
2018-05-02T04:03:10.987Z,98066.20
2018-05-02T04:08:43.607Z,98062.82
2018-05-02T04:11:10.016Z,98067.88
2018-05-02T04:13:36.476Z,98070.20
2018-05-02T04:16:02.881Z,98070.65
2018-05-02T04:18:29.527Z,98076.67
2018-05-02T04:20:56.021Z,98077.12
2018-05-02T04:23:23.505Z,98077.19
2018-05-02T04:25:49.935Z,98075.48
2018-05-02T04:28:16.342Z,98068.09
2018-05-02T04:30:43.529Z,98067.59
2018-05-02T04:33:10.011Z,98074.17
2018-05-02T04:35:36.470Z,98071.68
2018-05-02T04:38:02.924Z,98081.64
2018-05-02T04:40:29.326Z,98080.98
2018-05-02T04:42:56.480Z,98077.38
2018-05-02T04:45:23.965Z,98086.36
2018-05-02T04:47:50.626Z,98078.44
2018-05-02T04:50:17.340Z,98079.69
2018-05-02T04:52:43.884Z,98078.17
2018-05-02T04:55:10.335Z,98073.52
2018-05-02T04:57:36.744Z,98078.29
2018-05-02T05:00:03.225Z,98086.45
2018-05-02T05:02:29.683Z,98081.91
2018-05-02T05:04:56.824Z,98085.94
2018-05-02T05:07:23.948Z,98085.59
2018-05-02T05:09:50.415Z,98089.67
2018-05-02T05:12:16.967Z,98093.52
2018-05-02T05:14:43.642Z,98092.73
2018-05-02T05:17:10.050Z,98089.19
2018-05-02T05:19:36.433Z,98086.08
2018-05-02T05:22:03.212Z,98088.80
2018-05-02T05:24:30.435Z,98094.23
2018-05-02T05:26:57.344Z,98098.35
2018-05-02T05:29:24.868Z,98098.72
2018-05-02T05:31:51.305Z,98102.86
2018-05-02T05:34:17.859Z,98103.31
2018-05-02T05:36:44.782Z,98107.82
2018-05-02T05:39:11.276Z,98115.70
2018-05-02T05:41:38.069Z,98117.78
2018-05-02T05:44:04.486Z,98120.16
2018-05-02T05:46:30.905Z,98108.08
2018-05-02T05:48:58.274Z,98101.60
2018-05-02T05:51:24.841Z,98104.88
2018-05-02T05:53:51.231Z,98106.52
2018-05-02T05:56:17.809Z,98106.25
2018-05-02T05:58:44.223Z,98107.77
2018-05-02T06:01:10.955Z,98103.96
2018-05-02T06:03:37.418Z,98104.38
2018-05-02T06:06:03.848Z,98101.11
2018-05-02T06:08:30.259Z,98100.47
2018-05-02T06:10:57.085Z,98091.59
2018-05-02T06:13:24.252Z,98096.92
2018-05-02T06:15:50.650Z,98089.92
2018-05-02T06:18:17.148Z,98096.07
2018-05-02T06:20:43.571Z,98095.77
2018-05-02T06:23:09.965Z,98096.16
2018-05-02T06:25:37.146Z,98094.98
2018-05-02T06:28:03.632Z,98090.30
2018-05-02T06:30:30.107Z,98086.25
2018-05-02T06:32:56.528Z,98092.12
2018-05-02T06:35:23.089Z,98089.66
2018-05-02T06:37:49.513Z,98090.59
2018-05-02T06:40:16.003Z,98089.13
2018-05-02T06:42:42.400Z,98092.23
2018-05-02T06:45:08.837Z,98090.65
2018-05-02T06:47:35.378Z,98087.02
2018-05-02T06:50:01.832Z,98083.38
2018-05-02T06:52:29.338Z,98088.78
2018-05-02T06:54:55.759Z,98086.68
2018-05-02T06:57:22.141Z,98080.11
2018-05-02T06:59:48.540Z,98079.58
2018-05-02T07:02:15.018Z,98071.30
2018-05-02T07:04:41.550Z,98073.44
2018-05-02T07:07:09.136Z,98069.08
2018-05-02T07:09:35.474Z,98066.12
2018-05-02T07:12:02.702Z,98070.17
2018-05-02T07:14:29.104Z,98064.00
2018-05-02T07:16:55.572Z,98050.14
2018-05-02T07:19:24.075Z,98052.39
2018-05-02T07:21:50.488Z,98057.69
2018-05-02T07:24:17.754Z,98054.35
2018-05-02T07:26:44.910Z,98051.19
2018-05-02T07:29:12.248Z,98046.52
2018-05-02T07:31:39.400Z,98039.83
2018-05-02T07:34:06.611Z,98044.94
2018-05-02T07:36:33.032Z,98035.95
2018-05-02T07:38:59.423Z,98040.53
2018-05-02T07:41:26.610Z,98028.81
2018-05-02T07:43:53.004Z,98025.05
2018-05-02T07:46:20.250Z,98029.13
2018-05-02T07:48:47.513Z,98032.90
2018-05-02T07:51:13.912Z,98031.28
2018-05-02T07:53:40.624Z,98029.66
2018-05-02T07:56:07.077Z,98031.81
2018-05-02T07:58:33.772Z,98037.50
2018-05-02T08:01:00.202Z,98034.84
2018-05-02T08:03:26.615Z,98037.55
2018-05-02T08:05:53.787Z,98031.82
2018-05-02T08:08:20.228Z,98026.03
2018-05-02T08:10:46.764Z,98014.10
2018-05-02T08:13:13.249Z,98020.89
2018-05-02T08:15:40.083Z,98022.98
2018-05-02T08:18:06.873Z,98019.73
2018-05-02T08:20:33.244Z,98017.26
2018-05-02T08:22:59.664Z,98005.73
2018-05-02T08:25:26.067Z,98007.43
2018-05-02T08:27:59.583Z,98001.88
2018-05-02T08:30:26.028Z,97995.77
2018-05-02T08:32:52.532Z,97991.44
2018-05-02T08:35:18.849Z,97993.02
2018-05-02T08:37:45.988Z,98001.34
2018-05-02T08:40:13.174Z,97996.36
2018-05-02T08:42:39.799Z,98001.73
2018-05-02T08:45:06.210Z,97996.09
2018-05-02T08:47:33.698Z,97998.02
2018-05-02T08:50:00.143Z,97999.50
2018-05-02T08:52:26.532Z,97997.57
2018-05-02T08:54:53.713Z,98004.00
2018-05-02T08:57:20.138Z,98002.05
2018-05-02T08:59:46.544Z,98000.53
2018-05-02T09:02:13.737Z,97998.67
2018-05-02T09:04:40.897Z,98006.73
2018-05-02T09:07:07.392Z,98004.68
2018-05-02T09:09:34.525Z,98002.03
2018-05-02T09:12:00.909Z,98000.52
2018-05-02T09:14:27.316Z,98003.34
2018-05-02T09:16:53.731Z,98007.13
2018-05-02T09:19:20.889Z,97999.71
2018-05-02T09:21:48.049Z,97998.29
2018-05-02T09:24:14.803Z,97991.65
2018-05-02T09:26:41.242Z,97994.13
2018-05-02T09:29:07.873Z,97994.16
2018-05-02T09:31:34.287Z,97988.02
2018-05-02T09:34:00.707Z,97988.91
2018-05-02T09:36:27.877Z,97976.42
2018-05-02T09:38:54.267Z,97980.16
2018-05-02T09:41:20.952Z,97973.17
2018-05-02T09:43:47.485Z,97972.13
2018-05-02T09:46:13.892Z,97964.36
2018-05-02T09:48:41.066Z,97962.27
2018-05-02T09:51:07.492Z,97950.11
2018-05-02T09:53:34.651Z,97952.98
2018-05-02T09:56:01.079Z,97954.50
2018-05-02T09:58:27.471Z,97949.70
2018-05-02T10:00:53.893Z,97943.77
2018-05-02T10:03:20.391Z,97938.77
2018-05-02T10:05:46.884Z,97944.22
2018-05-02T10:08:14.076Z,97941.91
2018-05-02T10:10:40.711Z,97934.09
2018-05-02T10:13:07.112Z,97931.32
2018-05-02T10:15:34.278Z,97927.98
2018-05-02T10:18:01.523Z,97924.42
2018-05-02T10:20:28.658Z,97929.04
2018-05-02T10:22:55.845Z,97930.22
2018-05-02T10:25:22.352Z,97918.59
2018-05-02T10:27:49.516Z,97913.31
2018-05-02T10:30:15.971Z,97912.49
2018-05-02T10:32:42.361Z,97905.73
2018-05-02T10:35:09.547Z,97909.05
2018-05-02T10:37:35.954Z,97913.39
2018-05-02T10:40:03.163Z,97909.18
2018-05-02T10:42:29.560Z,97900.52
2018-05-02T10:44:56.299Z,97910.91
2018-05-02T10:47:22.713Z,97916.89
2018-05-02T10:49:49.870Z,97912.04
2018-05-02T10:52:16.331Z,97905.14
2018-05-02T10:54:42.732Z,97896.17
2018-05-02T10:57:09.881Z,97900.66
2018-05-02T10:59:37.044Z,97896.95
2018-05-02T11:02:03.456Z,97897.76
2018-05-02T11:04:30.940Z,97901.22
2018-05-02T11:06:57.396Z,97897.00
2018-05-02T11:09:23.891Z,97903.41
2018-05-02T11:11:50.311Z,97891.49
2018-05-02T11:14:16.801Z,97896.94
2018-05-02T11:16:43.286Z,97895.56
2018-05-02T11:19:10.413Z,97888.13
2018-05-02T11:21:37.100Z,97890.17
2018-05-02T11:24:03.519Z,97884.02
2018-05-02T11:26:30.682Z,97883.89
2018-05-02T11:28:57.113Z,97882.55
2018-05-02T11:31:23.591Z,97881.22
2018-05-02T11:33:50.077Z,97876.86
2018-05-02T11:36:16.826Z,97873.45
2018-05-02T11:38:43.260Z,97863.21
2018-05-02T11:41:09.656Z,97865.49
2018-05-02T11:43:36.812Z,97859.09
2018-05-02T11:46:04.068Z,97858.39
2018-05-02T11:48:31.272Z,97862.02
2018-05-02T11:50:57.799Z,97865.59
2018-05-02T11:53:24.512Z,97871.92
2018-05-02T11:55:50.987Z,97860.91
2018-05-02T11:58:17.407Z,97866.35
2018-05-02T12:00:43.827Z,97850.41
2018-05-02T12:03:10.556Z,97845.77
2018-05-02T12:05:37.095Z,97843.34
2018-05-02T12:08:03.504Z,97849.41
2018-05-02T12:10:30.966Z,97849.48
2018-05-02T12:12:58.394Z,97850.99
2018-05-02T12:15:24.809Z,97846.92
2018-05-02T12:17:51.343Z,97845.47
2018-05-02T12:20:17.749Z,97842.50
2018-05-02T12:22:44.160Z,97844.98
2018-05-02T12:25:10.581Z,97853.23
2018-05-02T12:27:37.717Z,97845.97
2018-05-02T12:30:06.570Z,97847.74
2018-05-02T12:32:33.101Z,97843.98
2018-05-02T12:34:59.560Z,97845.35
2018-05-02T12:37:26.066Z,97840.19
2018-05-02T12:39:52.496Z,97833.89
2018-05-02T12:42:18.924Z,97832.72
2018-05-02T12:44:45.319Z,97823.53
2018-05-02T12:47:12.545Z,97828.92
2018-05-02T12:49:38.994Z,97819.35
2018-05-02T12:52:05.456Z,97816.84
2018-05-02T12:54:31.859Z,97820.08
2018-05-02T12:56:58.315Z,97813.55
2018-05-02T12:59:25.806Z,97811.96
2018-05-02T13:01:52.263Z,97812.87
2018-05-02T13:04:18.963Z,97805.85
2018-05-02T13:06:45.361Z,97808.24
2018-05-02T13:09:12.550Z,97811.81
2018-05-02T13:11:38.962Z,97802.80
2018-05-02T13:14:06.123Z,97803.19
2018-05-02T13:16:32.864Z,97801.50
2018-05-02T13:18:59.279Z,97800.48
2018-05-02T13:21:26.686Z,97793.54
2018-05-02T13:23:53.092Z,97790.36
2018-05-02T13:26:19.500Z,97785.17
2018-05-02T13:28:46.973Z,97794.23
2018-05-02T13:31:13.715Z,97782.12
2018-05-02T13:33:40.436Z,97774.75
2018-05-02T13:36:07.567Z,97775.02
2018-05-02T13:38:34.729Z,97764.30
2018-05-02T13:41:01.872Z,97756.44
2018-05-02T13:43:29.183Z,97755.78
2018-05-02T13:45:55.591Z,97747.20
2018-05-02T13:48:21.977Z,97742.25
2018-05-02T13:50:49.896Z,97739.91
2018-05-02T13:53:16.321Z,97741.62
2018-05-02T13:55:42.788Z,97739.81
2018-05-02T13:58:09.500Z,97742.38
2018-05-02T14:00:35.895Z,97747.17
2018-05-02T14:03:02.347Z,97748.51
2018-05-02T14:05:29.487Z,97741.23
2018-05-02T14:07:56.660Z,97735.25
2018-05-02T14:10:23.058Z,97733.42
2018-05-02T14:12:50.226Z,97724.97
2018-05-02T14:15:17.341Z,97719.05
2018-05-02T14:17:44.488Z,97724.66
2018-05-02T14:20:10.900Z,97727.66
2018-05-02T14:22:37.342Z,97728.87
2018-05-02T14:25:03.865Z,97731.64
2018-05-02T14:27:30.579Z,97719.27
2018-05-02T14:29:57.024Z,97724.30
2018-05-02T14:32:23.427Z,97734.25
2018-05-02T14:34:50.595Z,97735.90
2018-05-02T14:37:17.336Z,97728.86
2018-05-02T14:39:43.780Z,97727.80
2018-05-02T14:42:10.278Z,97728.39
2018-05-02T14:44:37.449Z,97724.09
2018-05-02T14:47:03.889Z,97728.05
2018-05-02T14:49:30.515Z,97721.56
2018-05-02T14:51:56.949Z,97721.28
2018-05-02T14:54:23.393Z,97724.45
2018-05-02T14:56:50.037Z,97725.08
2018-05-02T14:59:16.485Z,97719.98
2018-05-02T15:01:42.941Z,97717.70
2018-05-02T15:04:09.437Z,97725.34
2018-05-02T15:06:35.947Z,97735.30
2018-05-02T15:09:03.215Z,97730.06
2018-05-02T15:11:29.659Z,97733.68
2018-05-02T15:13:56.199Z,97730.80
2018-05-02T15:16:22.638Z,97742.98
2018-05-02T15:18:49.040Z,97736.50
2018-05-02T15:21:15.795Z,97738.83
2018-05-02T15:23:42.362Z,97743.13
2018-05-02T15:26:09.309Z,97729.83
2018-05-02T15:28:35.757Z,97735.96
2018-05-02T15:31:03.760Z,97735.47
2018-05-02T15:33:31.963Z,97746.05
2018-05-02T15:35:58.488Z,97748.45
2018-05-02T15:38:25.796Z,97754.52
2018-05-02T15:40:52.288Z,97759.95
2018-05-02T15:43:18.805Z,97753.95
2018-05-02T15:45:46.508Z,97749.11
2018-05-02T15:48:13.602Z,97750.56
2018-05-02T15:50:40.781Z,97758.16
2018-05-02T15:53:07.429Z,97749.28
2018-05-02T15:55:33.976Z,97748.80
2018-05-02T15:58:00.431Z,97756.35
2018-05-02T16:00:27.662Z,97757.05
2018-05-02T16:02:54.112Z,97756.73
2018-05-02T16:05:20.515Z,97760.48
2018-05-02T16:07:46.955Z,97756.56
2018-05-02T16:10:13.368Z,97757.52
2018-05-02T16:12:39.830Z,97761.63
2018-05-02T16:15:06.554Z,97764.30
2018-05-02T16:17:32.997Z,97762.16
2018-05-02T16:19:59.528Z,97767.28
2018-05-02T16:22:25.921Z,97770.71
2018-05-02T16:24:53.094Z,97768.82
2018-05-02T16:27:19.510Z,97763.34
2018-05-02T16:29:46.692Z,97765.30
2018-05-02T16:32:13.129Z,97761.48
2018-05-02T16:34:39.549Z,97761.54
2018-05-02T16:37:06.107Z,97766.11
2018-05-02T16:39:32.856Z,97768.15
2018-05-02T16:41:59.699Z,97767.89
2018-05-02T16:44:26.090Z,97765.55
2018-05-02T16:46:52.499Z,97763.76
2018-05-02T16:49:19.714Z,97760.64
2018-05-02T16:51:46.200Z,97762.62
2018-05-02T16:54:12.648Z,97766.41
2018-05-02T16:56:39.361Z,97770.53
2018-05-02T16:59:05.809Z,97768.22
2018-05-02T17:01:32.270Z,97770.34
2018-05-02T17:03:58.677Z,97769.50
2018-05-02T17:06:25.178Z,97775.55
2018-05-02T17:08:52.330Z,97772.00
2018-05-02T17:11:18.822Z,97774.05
2018-05-02T17:13:45.934Z,97785.80
2018-05-02T17:16:12.346Z,97781.31
2018-05-02T17:18:39.583Z,97788.72
2018-05-02T17:21:06.748Z,97790.44
2018-05-02T17:23:33.184Z,97787.05
2018-05-02T17:26:00.493Z,97791.91
2018-05-02T17:28:27.028Z,97790.59
2018-05-02T17:30:53.445Z,97787.84
2018-05-02T17:33:20.569Z,97785.43
2018-05-02T17:35:48.076Z,97782.42
2018-05-02T17:38:14.562Z,97779.19
2018-05-02T17:40:41.097Z,97776.59
2018-05-02T17:43:07.526Z,97778.90
2018-05-02T17:45:34.761Z,97778.99
2018-05-02T17:48:01.569Z,97785.47
2018-05-02T17:50:27.995Z,97780.61
2018-05-02T17:52:54.565Z,97791.69
2018-05-02T17:55:21.728Z,97788.96
2018-05-02T17:57:48.949Z,97799.88
2018-05-02T18:00:15.365Z,97794.45
2018-05-02T18:02:41.791Z,97804.20
2018-05-02T18:05:08.696Z,97801.52
2018-05-02T18:07:35.925Z,97808.84
2018-05-02T18:10:02.353Z,97800.53
2018-05-02T18:12:28.745Z,97806.95
2018-05-02T18:14:55.154Z,97805.47
2018-05-02T18:17:21.571Z,97808.80
2018-05-02T18:19:48.346Z,97806.91
2018-05-02T18:22:14.773Z,97808.85
2018-05-02T18:24:41.350Z,97809.53
2018-05-02T18:27:07.937Z,97806.33
2018-05-02T18:29:34.479Z,97808.28
2018-05-02T18:32:00.951Z,97808.89
2018-05-02T18:34:27.369Z,97812.09
2018-05-02T18:36:53.895Z,97815.15
2018-05-02T18:39:20.720Z,97822.20
2018-05-02T18:41:47.282Z,97817.83
2018-05-02T18:44:13.726Z,97814.24
2018-05-02T18:46:40.219Z,97818.06
2018-05-02T18:49:06.793Z,97825.69
2018-05-02T18:51:33.189Z,97824.84
2018-05-02T18:53:59.622Z,97828.22
2018-05-02T18:56:26.468Z,97832.22
2018-05-02T18:58:53.423Z,97826.62
2018-05-02T19:01:20.924Z,97829.01
2018-05-02T19:03:49.053Z,97841.98
2018-05-02T19:06:15.506Z,97844.64
2018-05-02T19:08:42.011Z,97835.77
2018-05-02T19:11:08.472Z,97841.16
2018-05-02T19:13:40.970Z,97846.95
2018-05-02T19:16:07.485Z,97853.33
2018-05-02T19:18:40.138Z,97848.38
2018-05-02T19:21:06.574Z,97858.75
2018-05-02T19:23:33.207Z,97850.16
2018-05-02T19:26:05.798Z,97852.17
2018-05-02T19:28:32.206Z,97855.28
2018-05-02T19:34:03.634Z,97854.41
2018-05-02T19:36:30.623Z,97848.00
2018-05-02T19:38:57.897Z,97840.30
2018-05-02T19:41:30.414Z,97848.09
2018-05-02T19:44:03.165Z,97853.62
2018-05-02T19:46:29.886Z,97862.03
2018-05-02T19:48:56.448Z,97860.97
2018-05-02T19:51:29.075Z,97864.91
2018-05-02T19:53:56.338Z,97862.97
2018-05-02T19:56:23.470Z,97870.45
2018-05-02T19:58:50.660Z,97869.35
2018-05-02T20:01:23.212Z,97875.04
2018-05-02T20:03:49.905Z,97875.70
2018-05-02T20:06:16.351Z,97874.59
2018-05-02T20:08:48.861Z,97879.55
2018-05-02T20:11:22.011Z,97874.71
2018-05-02T20:13:54.612Z,97881.02
2018-05-02T20:16:21.924Z,97886.44
2018-05-02T20:18:48.607Z,97890.95
2018-05-02T20:21:15.873Z,97888.44
2018-05-02T20:23:43.118Z,97885.78
2018-05-02T20:26:10.597Z,97880.67
2018-05-02T20:28:37.167Z,97882.37
2018-05-02T20:31:03.788Z,97874.48
2018-05-02T20:33:30.319Z,97867.36
2018-05-02T20:35:56.766Z,97857.94
2018-05-02T20:38:23.356Z,97863.47
2018-05-02T20:40:50.541Z,97865.52
2018-05-02T20:43:16.987Z,97863.66
2018-05-02T20:45:43.599Z,97864.27
2018-05-02T20:48:10.020Z,97868.95
2018-05-02T20:50:36.448Z,97867.46
2018-05-02T20:53:03.615Z,97867.16
2018-05-02T20:55:30.046Z,97871.52
2018-05-02T20:57:56.474Z,97869.11
2018-05-02T21:00:22.865Z,97866.44
2018-05-02T21:02:49.347Z,97863.69
2018-05-02T21:05:15.753Z,97865.91
2018-05-02T21:07:42.905Z,97869.19
2018-05-02T21:10:10.322Z,97873.20
2018-05-02T21:12:36.744Z,97863.85
2018-05-02T21:15:03.162Z,97874.43
2018-05-02T21:17:29.596Z,97873.51
2018-05-02T21:19:56.321Z,97874.14
2018-05-02T21:22:22.736Z,97871.50
2018-05-02T21:24:50.015Z,97874.20
2018-05-02T21:27:16.442Z,97873.73
2018-05-02T21:29:42.851Z,97873.51
2018-05-02T21:32:10.262Z,97873.51
2018-05-02T21:34:36.683Z,97861.36
2018-05-02T21:37:03.119Z,97872.72
2018-05-02T21:39:29.609Z,97873.95
2018-05-02T21:41:57.090Z,97877.30
2018-05-02T21:44:23.508Z,97874.17
2018-05-02T21:46:50.652Z,97883.89
2018-05-02T21:49:17.865Z,97879.34
2018-05-02T21:51:45.025Z,97883.77
2018-05-02T21:54:11.608Z,97888.53
2018-05-02T21:56:38.956Z,97892.19
2018-05-02T21:59:05.363Z,97895.75
2018-05-02T22:01:32.537Z,97895.47
2018-05-02T22:03:58.987Z,97892.06
2018-05-02T22:06:25.722Z,97890.27
2018-05-02T22:08:52.143Z,97891.53
2018-05-02T22:11:18.749Z,97891.27
2018-05-02T22:13:46.057Z,97895.69
2018-05-02T22:16:12.483Z,97890.80
2018-05-02T22:18:38.931Z,97890.90
2018-05-02T22:21:05.649Z,97889.72
2018-05-02T22:23:32.732Z,97887.39
2018-05-02T22:25:59.173Z,97886.91
2018-05-02T22:28:26.655Z,97892.63
2018-05-02T22:30:55.211Z,97880.36
2018-05-02T22:33:22.763Z,97877.27
2018-05-02T22:35:49.292Z,97882.44
2018-05-02T22:38:15.780Z,97882.91
2018-05-02T22:40:43.901Z,97883.38
2018-05-02T22:43:10.335Z,97880.38
2018-05-02T22:45:36.932Z,97880.73
2018-05-02T22:48:03.414Z,97887.80
2018-05-02T22:50:29.836Z,97896.31
2018-05-02T22:52:56.285Z,97891.33
2018-05-02T22:55:22.704Z,97897.06
2018-05-02T22:57:49.121Z,97905.98
2018-05-02T23:00:15.687Z,97908.51
2018-05-02T23:02:42.217Z,97914.28
2018-05-02T23:05:08.918Z,97916.88
2018-05-02T23:07:35.315Z,97916.42
2018-05-02T23:10:02.522Z,97921.40
2018-05-02T23:12:28.903Z,97923.70
2018-05-02T23:14:56.054Z,97927.70
2018-05-02T23:17:23.207Z,97920.05
2018-05-02T23:19:50.451Z,97924.23
2018-05-02T23:22:17.609Z,97916.90
2018-05-02T23:24:44.041Z,97918.86
2018-05-02T23:27:11.315Z,97922.15
2018-05-02T23:29:37.822Z,97932.55
2018-05-02T23:32:05.087Z,97925.95
2018-05-02T23:34:32.253Z,97924.58
2018-05-02T23:36:58.679Z,97927.23
2018-05-02T23:39:25.135Z,97932.62
2018-05-02T23:41:51.591Z,97933.30
2018-05-02T23:44:18.393Z,97935.01
2018-05-02T23:46:44.887Z,97930.80
2018-05-02T23:49:11.335Z,97938.20
2018-05-02T23:51:38.548Z,97937.45
2018-05-02T23:54:04.980Z,97937.31
2018-05-02T23:56:31.445Z,97942.81
2018-05-02T23:58:58.759Z,97937.25
